Portada
METAR-TAF:

METAR-TAF

Aeropuertos :

Dusambé, Tayikistán

Aeropuerto Internacional de Dusambé

latitud: 38-33N, longitud: 068-47E, altitud: 803 m

Observación

El informe se hizo hace 21 minutos, a las 00:00 UTC
Viento 2 kt del norte-noreste
Temperatura 14°C
Humedad 47%
Presión 1019 hPa
Visibilidad 10 km o más

METAR: UTDD 260000Z 03001MPS 9999 NSC 14/03 Q1019 R09/D NOSIG RMK QFE696/0928

Hora: 05:21 (00:21 UTC)

Pronóstico

El informe se hizo hace 3 horas y 21 minutos, a las 21:00 UTC
Pronóstico válido del 25 a las 22 UTC al 26 a las 10 UTC
Viento 4 kt con dirección variable
Visibilidad 10 km o más
Escasas nubes a una altura de 6600 ft
Nubes dispersas a una altura de 15000 ft

TAF: UTDD 252100Z 2522/2610 VRB02MPS 9999 FEW066 SCT150

Observaciones y pronósticos meteorológicos de más de 4000 aeropuertos (mensajes METAR y TAF).

Los puntos amarillos y rojos representan las estaciones disponibles.

Ponga el ratón en el punto deseado para ver el nombre de la estación.

Haga clic para ver las observaciones y los pronósticos meteorológicos.

Para cambiar el mapa : haga clic en los botones verdes con una cruz de color negro para hacer un zoom, en el botón verde con un guión para alejar o en las flechas verdes para mapas adyacentes.


METAR-TAF: